Time;durP1;ratioP1;P1;durP2;ratioP2;P2;SDS_P1;SDS_P2;PMS_P1;PMS_P2;Temp;Humidity;BMP_temperature;BMP_pressure;BME280_temperature;BME280_humidity;BME280_pressure;Samples;Min_cycle;Max_cycle;Signal;HPM_P1;HPM_P2
2021/10/02 00:02:13;;;;;;;9.10;2.27;;;;;;;15.93;57.82;100034.66;5062279;28;20491;-77
2021/10/02 00:35:13;;;;;;;4.50;2.37;;;;;;;14.75;66.70;100057.97;5060752;28;20522;-78
2021/10/02 00:38:04;;;;;;;4.20;2.53;;;;;;;14.43;68.32;100056.19;5050607;28;20528;-78
2021/10/02 00:46:16;;;;;;;8.13;3.87;;;;;;;13.57;74.46;100063.69;4993546;28;21079;-79
2021/10/02 00:48:43;;;;;;;5.03;3.50;;;;;;;13.91;73.92;100060.88;4997475;28;20451;-78
2021/10/02 00:51:10;;;;;;;6.60;4.40;;;;;;;13.63;75.82;100056.84;5000665;28;20471;-78
2021/10/02 00:53:36;;;;;;;7.93;3.83;;;;;;;13.43;76.36;100057.13;4983458;28;20512;-77
2021/10/02 00:56:03;;;;;;;3.90;3.50;;;;;;;13.62;76.35;100060.53;4980805;28;20452;-78
2021/10/02 00:58:31;;;;;;;5.83;4.70;;;;;;;13.76;76.10;100049.13;4986174;28;20476;-78
2021/10/02 01:00:59;;;;;;;5.47;4.47;;;;;;;13.45;77.58;100043.53;5023101;23;20475;-73
2021/10/02 01:03:48;;;;;;;5.90;4.53;;;;;;;13.66;77.41;100048.44;5060181;28;20444;-73
2021/10/02 01:06:44;;;;;;;8.97;4.90;;;;;;;13.69;77.47;100046.25;5060200;28;20535;-73
2021/10/02 01:09:17;;;;;;;8.63;5.20;;;;;;;13.65;78.32;100042.22;5059706;28;20460;-73
2021/10/02 01:11:49;;;;;;;8.17;5.70;;;;;;;13.77;77.99;100036.53;5060360;28;20480;-73
2021/10/02 01:14:20;;;;;;;6.03;5.10;;;;;;;13.63;78.89;100030.81;5061292;28;21014;-73
2021/10/02 01:16:50;;;;;;;6.40;5.23;;;;;;;13.74;78.76;100024.28;5063784;28;20484;-73
2021/10/02 01:19:33;;;;;;;10.53;7.00;;;;;;;13.84;78.52;100024.94;5064247;28;20560;-74
2021/10/02 01:22:09;;;;;;;7.10;6.40;;;;;;;13.94;78.20;100031.00;5063492;28;20563;-73
2021/10/02 01:24:45;;;;;;;9.50;7.50;;;;;;;13.96;78.38;100028.16;5063545;28;20484;-73
2021/10/02 01:27:33;;;;;;;11.57;8.17;;;;;;;13.92;78.50;100024.09;5063583;28;20483;-73
2021/10/02 01:30:04;;;;;;;9.77;8.77;;;;;;;13.80;79.24;100017.38;5064188;28;20438;-73
2021/10/02 01:32:34;;;;;;;8.70;7.80;;;;;;;13.65;79.79;100022.59;5063652;28;20485;-74
2021/10/02 01:35:10;;;;;;;8.90;8.00;;;;;;;13.87;79.36;100024.63;5063957;28;20903;-74
2021/10/02 01:37:55;;;;;;;9.93;8.80;;;;;;;14.01;78.91;100024.94;5063256;28;20538;-72
2021/10/02 01:48:43;;;;;;;12.30;8.70;;;;;;;14.05;79.24;100007.47;5065497;28;20464;-74
2021/10/02 01:51:11;;;;;;;12.53;8.30;;;;;;;13.90;79.60;100013.50;5068205;28;20560;-73
2021/10/02 01:53:38;;;;;;;9.93;8.93;;;;;;;13.93;79.80;100009.66;5064353;28;20488;-73
2021/10/02 01:56:05;;;;;;;10.63;7.90;;;;;;;13.96;79.72;100009.34;5063029;28;20508;-72
2021/10/02 01:58:34;;;;;;;9.90;8.90;;;;;;;13.86;80.31;100014.03;5063880;28;20472;-72
2021/10/02 02:01:03;;;;;;;10.03;8.23;;;;;;;14.05;79.74;100004.78;5062776;28;20516;-72
2021/10/02 02:03:35;;;;;;;11.60;8.80;;;;;;;13.93;79.54;99998.91;5063666;28;20469;-73
2021/10/02 02:06:02;;;;;;;9.07;8.17;;;;;;;14.11;79.67;99999.59;5063012;28;20484;-72
2021/10/02 02:08:30;;;;;;;9.73;8.30;;;;;;;14.03;80.25;100004.13;5062862;28;20544;-73
2021/10/02 02:10:57;;;;;;;9.47;7.83;;;;;;;14.08;79.97;99996.41;5061341;28;20493;-73
2021/10/02 02:13:25;;;;;;;13.20;8.60;;;;;;;14.23;79.33;99997.34;5063921;28;20485;-73
2021/10/02 02:15:55;;;;;;;9.03;8.13;;;;;;;14.09;79.31;99996.19;5062293;28;20544;-73
2021/10/02 02:18:23;;;;;;;11.37;8.93;;;;;;;13.84;80.81;99991.88;5062787;28;20456;-73
2021/10/02 02:20:54;;;;;;;17.40;11.30;;;;;;;13.77;80.77;99990.88;5061620;28;20504;-73
2021/10/02 02:23:21;;;;;;;10.90;9.73;;;;;;;14.08;80.23;99989.16;5061730;28;20495;-73
2021/10/02 02:25:47;;;;;;;11.30;9.17;;;;;;;13.86;81.04;99989.84;5061812;28;20504;-73
2021/10/02 02:28:14;;;;;;;10.67;8.73;;;;;;;13.85;80.96;99985.47;5063133;28;20432;-74
2021/10/02 02:30:42;;;;;;;12.90;8.50;;;;;;;14.02;80.61;99983.63;5062090;28;20496;-73
2021/10/02 02:33:10;;;;;;;13.50;7.70;;;;;;;13.97;80.77;99985.97;5062734;28;20673;-74
2021/10/02 02:35:36;;;;;;;9.43;7.00;;;;;;;14.07;80.09;99984.78;5060579;28;20481;-74
2021/10/02 02:38:03;;;;;;;11.40;6.87;;;;;;;13.67;81.34;99983.78;5057009;28;20492;-74
2021/10/02 02:40:30;;;;;;;6.20;5.60;;;;;;;13.81;80.89;99986.81;5062432;28;20492;-74
2021/10/02 02:42:57;;;;;;;6.80;5.83;;;;;;;13.57;81.65;99983.13;5062259;28;20477;-73
2021/10/02 02:45:24;;;;;;;18.33;6.57;;;;;;;13.66;81.47;99982.13;5061340;28;20463;-73
2021/10/02 02:47:55;;;;;;;8.13;5.43;;;;;;;13.71;81.00;99979.78;5062807;28;20425;-73
2021/10/02 02:50:28;;;;;;;9.03;6.70;;;;;;;13.61;81.69;99972.88;5061711;28;20480;-74
2021/10/02 02:53:01;;;;;;;8.80;6.27;;;;;;;13.73;81.27;99983.13;5059838;28;20472;-74
2021/10/02 02:55:30;;;;;;;8.00;6.70;;;;;;;13.68;81.32;99987.31;5061836;28;20469;-72
2021/10/02 02:58:00;;;;;;;7.00;6.30;;;;;;;13.72;81.54;99980.63;5062824;28;20484;-72
2021/10/02 03:00:27;;;;;;;9.17;6.67;;;;;;;13.45;82.03;99993.34;5062079;28;20555;-73
2021/10/02 03:02:56;;;;;;;8.70;6.93;;;;;;;13.46;82.02;99984.28;5062660;28;20476;-73
2021/10/02 03:05:25;;;;;;;7.00;6.30;;;;;;;13.53;81.93;99979.09;5061625;28;20473;-73
2021/10/02 03:07:55;;;;;;;7.60;5.70;;;;;;;13.46;82.04;99970.84;5062558;28;20456;-74
2021/10/02 03:10:22;;;;;;;6.00;5.10;;;;;;;13.37;82.49;99978.06;5061581;28;20573;-73
2021/10/02 03:12:49;;;;;;;8.20;5.20;;;;;;;13.74;81.71;99983.97;5062054;28;20518;-73
2021/10/02 03:15:17;;;;;;;8.03;5.40;;;;;;;13.54;81.74;99981.63;5061266;28;20524;-73
2021/10/02 03:17:45;;;;;;;5.97;5.00;;;;;;;13.52;82.06;99988.16;5062427;28;20485;-73
2021/10/02 03:20:13;;;;;;;6.20;5.60;;;;;;;13.43;82.06;99987.28;5061432;28;20433;-72
2021/10/02 03:22:42;;;;;;;8.00;7.20;;;;;;;13.28;82.77;99986.22;5062704;28;20809;-73
2021/10/02 03:25:10;;;;;;;6.27;5.50;;;;;;;13.46;82.26;99986.13;5061283;28;20468;-72
2021/10/02 03:27:38;;;;;;;7.40;5.50;;;;;;;13.42;82.50;99972.22;5062238;28;20492;-72
2021/10/02 03:30:07;;;;;;;7.63;5.00;;;;;;;13.45;82.50;99979.06;5061787;28;20444;-72
2021/10/02 03:32:33;;;;;;;6.87;5.87;;;;;;;13.27;83.16;99984.56;5062341;28;20504;-72
2021/10/02 03:35:00;;;;;;;6.13;5.63;;;;;;;13.33;82.93;99994.66;5061950;28;20500;-73
2021/10/02 03:37:29;;;;;;;6.03;5.40;;;;;;;13.48;82.26;99990.31;5059481;28;20504;-73
2021/10/02 03:39:58;;;;;;;7.20;5.50;;;;;;;13.44;82.53;99994.34;5049811;28;20493;-73
2021/10/02 03:42:25;;;;;;;6.63;5.13;;;;;;;13.18;83.34;99984.53;5041800;28;20534;-73
2021/10/02 03:44:54;;;;;;;6.10;5.60;;;;;;;13.52;82.53;99978.25;5053285;28;20517;-74
2021/10/02 03:47:22;;;;;;;10.30;6.10;;;;;;;13.42;82.76;99980.25;5061080;28;20512;-74
2021/10/02 03:49:51;;;;;;;6.93;6.20;;;;;;;13.36;82.99;99980.91;5062373;28;20444;-74
2021/10/02 03:52:18;;;;;;;7.53;6.40;;;;;;;13.27;83.54;99973.81;5060912;28;20496;-74
2021/10/02 03:54:44;;;;;;;7.17;6.40;;;;;;;13.54;82.43;99968.19;5060553;28;20484;-74
2021/10/02 03:57:13;;;;;;;7.13;6.53;;;;;;;13.28;83.02;99964.75;5061361;28;20530;-73
2021/10/02 03:59:40;;;;;;;9.47;7.00;;;;;;;13.50;82.84;99957.94;5061256;28;20525;-74
2021/10/02 04:02:07;;;;;;;8.00;7.20;;;;;;;13.35;83.25;99957.78;5061224;28;20495;-73
2021/10/02 04:04:34;;;;;;;8.07;7.37;;;;;;;13.40;83.33;99957.25;5061441;28;20468;-73
2021/10/02 04:07:00;;;;;;;7.80;7.10;;;;;;;13.25;84.21;99951.69;5061280;28;20509;-73
2021/10/02 04:09:27;;;;;;;7.07;6.47;;;;;;;13.24;84.24;99958.88;5061072;28;21099;-73
2021/10/02 04:11:54;;;;;;;8.30;6.97;;;;;;;13.49;83.44;99967.84;5060551;28;20491;-73
2021/10/02 04:14:22;;;;;;;8.00;7.00;;;;;;;13.47;83.67;99959.13;5061056;28;20541;-73
2021/10/02 04:16:49;;;;;;;8.30;6.40;;;;;;;13.56;83.31;99966.16;5061052;28;20500;-73
2021/10/02 04:19:16;;;;;;;6.57;5.93;;;;;;;13.62;82.79;99967.34;5061595;28;20539;-73
2021/10/02 04:21:43;;;;;;;6.93;6.10;;;;;;;13.86;82.10;99963.81;5060627;28;20511;-73
2021/10/02 04:24:09;;;;;;;6.00;5.50;;;;;;;13.74;82.65;99963.31;5060892;28;20503;-72
2021/10/02 04:26:36;;;;;;;8.00;6.50;;;;;;;13.76;82.33;99968.50;5060161;28;20484;-74
2021/10/02 04:29:03;;;;;;;7.37;6.27;;;;;;;13.66;82.91;99962.47;5060908;28;21010;-73
2021/10/02 04:31:31;;;;;;;7.37;6.67;;;;;;;13.54;83.03;99964.63;5061239;28;20500;-73
2021/10/02 04:33:58;;;;;;;8.03;7.17;;;;;;;13.63;83.14;99960.13;5061336;28;20535;-73
2021/10/02 04:36:24;;;;;;;7.20;6.60;;;;;;;13.61;82.77;99957.63;5060794;28;20488;-73
2021/10/02 04:38:51;;;;;;;9.03;8.10;;;;;;;13.40;83.06;99962.63;5060254;28;20481;-74
2021/10/02 04:41:18;;;;;;;8.67;7.87;;;;;;;13.66;82.88;99965.16;5060508;28;20979;-75
2021/10/02 04:43:45;;;;;;;8.50;7.77;;;;;;;13.68;83.01;99965.81;5060930;28;20513;-74
2021/10/02 04:46:13;;;;;;;8.97;8.07;;;;;;;13.68;82.86;99958.63;5060659;28;20476;-72
2021/10/02 04:48:41;;;;;;;9.40;8.50;;;;;;;13.61;82.99;99954.06;5060846;28;20449;-73
2021/10/02 04:51:09;;;;;;;8.87;8.03;;;;;;;13.69;83.15;99954.06;5064110;28;20547;-73
2021/10/02 04:53:36;;;;;;;9.03;8.13;;;;;;;13.75;82.84;99956.09;5064264;28;20495;-73
2021/10/02 04:56:05;;;;;;;10.30;7.70;;;;;;;13.67;83.14;99954.25;5064370;28;20505;-73
2021/10/02 04:58:32;;;;;;;9.40;8.60;;;;;;;13.62;83.40;99947.69;5064304;28;20453;-73
2021/10/02 05:00:59;;;;;;;12.83;9.50;;;;;;;13.71;83.12;99955.59;5063957;28;20473;-73
2021/10/02 05:03:26;;;;;;;9.23;8.07;;;;;;;13.94;82.46;99962.97;5065052;28;20463;-73
2021/10/02 05:05:54;;;;;;;9.70;8.80;;;;;;;13.82;82.57;99958.94;5064172;28;20514;-74
2021/10/02 05:08:21;;;;;;;9.80;8.27;;;;;;;13.83;82.76;99957.94;5064475;28;20464;-73
2021/10/02 05:10:48;;;;;;;11.33;8.90;;;;;;;14.08;81.58;99953.38;5063436;28;20609;-73
2021/10/02 05:13:14;;;;;;;10.60;8.63;;;;;;;13.86;81.71;99947.69;5064700;28;20464;-73
2021/10/02 05:15:41;;;;;;;11.10;10.00;;;;;;;13.72;82.50;99943.84;5062940;28;20551;-73
2021/10/02 05:18:08;;;;;;;10.37;9.37;;;;;;;13.73;82.45;99953.59;5065416;28;20455;-72
2021/10/02 05:20:35;;;;;;;11.60;9.50;;;;;;;13.80;81.79;99948.38;5063543;28;20541;-73
2021/10/02 05:23:03;;;;;;;9.27;8.37;;;;;;;14.13;80.92;99951.03;5064522;28;20491;-73
2021/10/02 05:25:30;;;;;;;8.57;7.77;;;;;;;14.10;80.71;99951.38;5056682;28;20501;-74
2021/10/02 05:27:57;;;;;;;8.63;7.93;;;;;;;14.01;81.12;99966.66;5046427;28;20711;-73
2021/10/02 05:30:23;;;;;;;8.63;7.67;;;;;;;13.97;81.18;99967.16;5063413;28;20525;-74
2021/10/02 05:32:50;;;;;;;8.00;7.27;;;;;;;13.80;81.29;99966.31;5069969;28;20444;-71
2021/10/02 05:35:17;;;;;;;8.73;6.83;;;;;;;13.80;81.31;99963.63;5072303;28;20491;-74
2021/10/02 05:37:43;;;;;;;10.67;7.60;;;;;;;14.09;80.97;99965.81;5073536;28;20452;-73
2021/10/02 05:40:12;;;;;;;7.90;7.10;;;;;;;13.85;81.10;99972.03;5068033;28;20452;-80
2021/10/02 05:42:38;;;;;;;7.60;6.90;;;;;;;13.90;81.08;99973.19;5063984;28;20452;-76
2021/10/02 05:45:05;;;;;;;6.53;5.93;;;;;;;13.94;81.21;99974.56;5063419;28;20901;-73
2021/10/02 05:47:32;;;;;;;10.40;6.50;;;;;;;14.10;80.46;99976.38;5063261;28;20445;-80
2021/10/02 05:49:59;;;;;;;7.33;6.67;;;;;;;13.99;80.70;99981.25;5060135;28;20548;-77
2021/10/02 05:52:26;;;;;;;6.90;5.73;;;;;;;13.66;82.03;99978.59;5062174;28;20512;-78
2021/10/02 05:54:53;;;;;;;7.17;6.07;;;;;;;13.80;81.74;99977.94;5062594;28;20575;-78
2021/10/02 05:57:21;;;;;;;9.37;6.80;;;;;;;13.81;81.53;99974.22;5063412;28;20516;-77
2021/10/02 05:59:48;;;;;;;7.87;6.27;;;;;;;13.74;82.01;99976.75;5063214;28;20461;-77
2021/10/02 06:02:15;;;;;;;6.07;5.57;;;;;;;13.98;81.16;99976.91;5062273;28;20500;-76
2021/10/02 06:04:41;;;;;;;6.30;5.70;;;;;;;14.12;80.53;99977.06;5062101;28;20496;-77
2021/10/02 06:07:08;;;;;;;7.50;5.80;;;;;;;14.05;80.45;99972.53;5061288;28;20565;-74
2021/10/02 06:09:35;;;;;;;6.87;6.17;;;;;;;13.77;81.42;99978.25;5062814;28;20445;-75
2021/10/02 06:12:02;;;;;;;5.93;5.33;;;;;;;14.21;80.55;99980.56;5062623;28;20917;-77
2021/10/02 06:14:30;;;;;;;6.77;6.07;;;;;;;14.08;80.40;99981.09;5061884;28;20489;-77
2021/10/02 06:16:57;;;;;;;6.90;6.30;;;;;;;14.03;80.46;99985.31;5061095;28;20515;-77
2021/10/02 06:19:23;;;;;;;6.83;6.23;;;;;;;14.14;80.41;99987.63;5062458;28;21012;-76
2021/10/02 06:21:50;;;;;;;6.33;5.83;;;;;;;14.15;80.38;99991.16;5061639;28;20555;-74
2021/10/02 06:24:17;;;;;;;7.97;7.17;;;;;;;14.41;79.40;99989.09;5061076;28;20485;-76
2021/10/02 06:26:43;;;;;;;8.20;5.60;;;;;;;14.26;79.66;99998.88;5061932;28;20515;-76
2021/10/02 06:29:11;;;;;;;5.80;5.30;;;;;;;14.52;79.14;100000.50;5062990;28;20500;-76
2021/10/02 06:31:39;;;;;;;7.00;4.50;;;;;;;14.38;79.16;99994.81;5061999;28;20508;-75
2021/10/02 06:34:05;;;;;;;6.73;6.00;;;;;;;14.39;79.33;99987.59;5062078;28;20456;-75
2021/10/02 06:36:32;;;;;;;7.77;5.73;;;;;;;14.17;79.68;99987.31;5061628;28;20508;-75
2021/10/02 06:38:59;;;;;;;6.03;5.50;;;;;;;13.97;80.60;99983.28;5062605;28;20496;-76
2021/10/02 06:41:26;;;;;;;6.63;6.03;;;;;;;14.16;80.41;99974.03;5061096;28;20550;-75
2021/10/02 06:43:53;;;;;;;8.10;5.90;;;;;;;14.08;80.77;99969.50;5062927;28;20479;-75
2021/10/02 06:46:19;;;;;;;7.30;5.40;;;;;;;14.28;79.93;99978.88;5060482;28;20530;-81
2021/10/02 06:48:47;;;;;;;6.70;5.40;;;;;;;14.35;79.61;99980.88;5062655;28;20476;-80
2021/10/02 06:51:14;;;;;;;7.07;6.00;;;;;;;14.55;79.28;99982.19;5062186;28;20564;-81
2021/10/02 06:53:41;;;;;;;6.30;5.70;;;;;;;14.52;78.95;99979.00;5062056;28;20480;-78
2021/10/02 06:56:07;;;;;;;7.13;5.70;;;;;;;14.22;79.60;99987.63;5060689;28;20508;-78
2021/10/02 06:58:34;;;;;;;6.30;5.67;;;;;;;14.26;79.45;99980.88;5060540;28;20669;-82
2021/10/02 07:01:01;;;;;;;5.93;5.33;;;;;;;14.24;79.71;99976.72;5054973;28;20516;-75
2021/10/02 07:03:27;;;;;;;6.20;5.50;;;;;;;14.04;79.98;99984.28;5051614;28;20514;-77
2021/10/02 07:05:55;;;;;;;6.17;5.67;;;;;;;14.18;79.76;99994.34;5055933;28;20555;-77
2021/10/02 07:08:22;;;;;;;6.80;5.10;;;;;;;14.39;79.25;99991.13;5060395;28;20540;-75
2021/10/02 07:10:49;;;;;;;6.73;5.80;;;;;;;13.98;80.23;99984.97;5060020;28;20512;-73
2021/10/02 07:13:15;;;;;;;6.70;5.90;;;;;;;13.84;80.57;99978.44;5060991;28;20459;-74
2021/10/02 07:15:42;;;;;;;7.10;5.60;;;;;;;13.78;81.23;99981.78;5059634;28;20473;-74
2021/10/02 07:18:09;;;;;;;7.43;6.00;;;;;;;13.88;81.16;99980.59;5060052;28;20508;-74
2021/10/02 07:20:35;;;;;;;10.20;5.80;;;;;;;13.80;81.08;99975.25;5058783;28;20476;-74
2021/10/02 07:23:04;;;;;;;5.87;5.30;;;;;;;13.88;81.26;99975.22;5061277;28;20437;-74
2021/10/02 07:25:30;;;;;;;5.80;5.13;;;;;;;13.98;81.05;99979.59;5059517;28;20485;-74
2021/10/02 07:27:57;;;;;;;6.53;5.90;;;;;;;13.83;81.24;99980.25;5048272;28;20521;-73
2021/10/02 07:30:25;;;;;;;8.73;4.60;;;;;;;13.94;81.52;99982.63;5040917;28;20463;-74
2021/10/02 07:32:51;;;;;;;7.13;5.40;;;;;;;13.94;81.64;99989.84;5042624;28;20466;-74
2021/10/02 07:35:19;;;;;;;7.17;5.93;;;;;;;14.03;81.34;99983.47;5060163;28;20815;-74
2021/10/02 07:37:45;;;;;;;6.07;5.47;;;;;;;13.94;81.49;99976.41;5060445;28;20461;-74
2021/10/02 07:40:14;;;;;;;5.63;5.13;;;;;;;14.11;80.83;99971.84;5060338;28;20483;-74
2021/10/02 07:42:45;;;;;;;7.00;5.63;;;;;;;14.38;80.02;99985.94;5056116;28;20487;-74
2021/10/02 07:45:13;;;;;;;6.80;5.97;;;;;;;14.12;80.49;99985.13;5040144;28;20498;-74
2021/10/02 07:47:42;;;;;;;7.27;5.77;;;;;;;14.28;80.07;99975.34;5040933;28;20509;-74
2021/10/02 07:50:10;;;;;;;8.37;5.87;;;;;;;14.33;80.42;99986.44;5040254;28;20489;-74
2021/10/02 07:52:38;;;;;;;6.80;6.10;;;;;;;14.50;79.77;99987.22;5040049;28;20481;-74
2021/10/02 07:55:07;;;;;;;7.57;6.70;;;;;;;14.41;80.02;99981.03;5061117;28;20461;-72
2021/10/02 07:57:36;;;;;;;6.43;5.80;;;;;;;14.04;80.12;99971.69;5058581;28;20659;-74
2021/10/02 08:00:05;;;;;;;6.50;5.30;;;;;;;14.13;80.53;99980.59;5059270;28;20492;-72
2021/10/02 08:02:32;;;;;;;6.70;5.47;;;;;;;14.16;80.49;99980.22;5057816;28;20484;-72
2021/10/02 08:04:59;;;;;;;6.43;5.17;;;;;;;14.31;79.77;99975.00;5044271;28;20449;-72
2021/10/02 08:07:26;;;;;;;10.87;5.80;;;;;;;14.46;79.80;99980.50;5059116;28;20964;-73
2021/10/02 08:09:53;;;;;;;6.77;5.87;;;;;;;14.55;79.17;99970.56;5059109;28;20533;-72
2021/10/02 08:12:20;;;;;;;6.20;5.37;;;;;;;14.53;79.85;99984.19;5057969;28;20560;-72
2021/10/02 08:14:48;;;;;;;5.23;4.57;;;;;;;14.25;80.01;99967.63;5058874;28;20457;-72
2021/10/02 08:17:15;;;;;;;6.80;4.80;;;;;;;14.48;80.23;99970.44;5058777;28;20477;-72
2021/10/02 08:19:42;;;;;;;5.93;5.17;;;;;;;14.76;79.33;99961.94;5059487;28;20452;-71
2021/10/02 08:22:10;;;;;;;4.73;4.33;;;;;;;14.78;79.71;99971.50;5059433;28;20476;-72
2021/10/02 08:24:39;;;;;;;4.27;3.90;;;;;;;14.68;78.68;99968.19;5042381;28;20872;-72
2021/10/02 08:27:05;;;;;;;4.87;3.67;;;;;;;14.40;79.67;99965.06;5037373;28;20469;-72
2021/10/02 08:29:32;;;;;;;4.43;4.03;;;;;;;14.58;80.24;99971.09;5053215;28;20530;-72
2021/10/02 08:32:00;;;;;;;3.67;3.37;;;;;;;14.91;79.18;99970.94;5058180;28;20506;-72
2021/10/02 08:34:27;;;;;;;4.37;3.97;;;;;;;15.11;78.80;99959.75;5057802;28;20445;-73
2021/10/02 08:36:54;;;;;;;4.73;4.30;;;;;;;14.90;78.82;99963.06;5057026;28;20477;-73
2021/10/02 08:39:20;;;;;;;4.00;3.60;;;;;;;14.75;78.54;99969.16;5058623;28;20453;-73
2021/10/02 08:41:49;;;;;;;4.03;3.70;;;;;;;14.78;78.60;99960.75;5056667;28;20481;-73
2021/10/02 08:44:17;;;;;;;4.23;3.43;;;;;;;15.06;78.25;99961.09;5053507;28;20453;-72
2021/10/02 08:46:48;;;;;;;4.07;3.77;;;;;;;14.97;78.63;99967.56;5058268;28;20763;-72
2021/10/02 08:49:35;;;;;;;3.70;3.40;;;;;;;14.89;78.00;99956.81;5057610;28;20480;-72
2021/10/02 08:52:04;;;;;;;3.50;3.20;;;;;;;14.62;79.04;99960.84;5038071;28;20498;-72
2021/10/02 08:54:35;;;;;;;3.10;2.80;;;;;;;14.61;78.90;99954.59;5054318;28;20513;-73
2021/10/02 08:57:03;;;;;;;4.23;2.97;;;;;;;14.72;78.79;99963.28;5057452;28;20481;-73
2021/10/02 08:59:29;;;;;;;4.23;3.50;;;;;;;14.79;78.47;99945.44;5058502;28;20455;-72
2021/10/02 09:01:56;;;;;;;3.47;3.17;;;;;;;14.73;78.47;99952.38;5058075;28;20500;-72
2021/10/02 09:04:24;;;;;;;3.63;3.30;;;;;;;14.75;78.52;99944.13;5058101;28;20452;-75
2021/10/02 09:06:51;;;;;;;4.33;3.83;;;;;;;14.98;78.50;99941.47;5057932;28;20508;-74
2021/10/02 09:09:18;;;;;;;4.07;2.80;;;;;;;15.18;76.69;99941.88;5058815;28;20490;-74
2021/10/02 09:11:44;;;;;;;3.70;3.00;;;;;;;15.39;76.31;99933.97;5057275;28;20653;-73
2021/10/02 09:14:11;;;;;;;3.20;2.90;;;;;;;15.76;75.67;99943.16;5059090;28;20479;-74
2021/10/02 09:16:39;;;;;;;2.50;2.30;;;;;;;15.85;74.81;99952.00;5056827;28;20508;-74
2021/10/02 09:19:08;;;;;;;2.60;2.40;;;;;;;15.85;75.55;99946.59;5057923;28;20473;-74
2021/10/02 09:21:43;;;;;;;4.90;3.00;;;;;;;15.56;75.60;99941.94;5058411;28;20484;-73
2021/10/02 09:24:21;;;;;;;3.23;2.23;;;;;;;15.16;76.36;99942.03;5057972;28;20517;-73
2021/10/02 09:26:47;;;;;;;2.60;2.10;;;;;;;15.21;77.00;99933.44;5057799;28;20528;-74
2021/10/02 09:29:15;;;;;;;2.67;2.40;;;;;;;15.34;76.22;99933.66;5056518;28;20472;-74
2021/10/02 09:31:42;;;;;;;2.50;1.97;;;;;;;15.57;75.33;99938.22;5058232;28;20503;-74
2021/10/02 09:34:21;;;;;;;3.57;2.60;;;;;;;15.17;76.26;99934.78;5060518;28;20654;-75
2021/10/02 09:36:49;;;;;;;3.87;2.17;;;;;;;15.09;77.18;99942.94;5063332;28;20591;-74
2021/10/02 09:39:17;;;;;;;4.30;2.60;;;;;;;15.21;76.93;99933.44;5061141;28;20492;-71
2021/10/02 09:41:52;;;;;;;3.20;2.90;;;;;;;15.44;76.40;99931.56;5041282;28;20560;-71
2021/10/02 09:44:23;;;;;;;2.83;2.53;;;;;;;15.50;76.15;99935.41;5048918;28;20433;-71
2021/10/02 09:46:50;;;;;;;5.70;2.73;;;;;;;15.80;75.16;99927.44;5055191;28;20508;-71
2021/10/02 09:49:17;;;;;;;3.27;2.97;;;;;;;16.34;72.86;99929.09;5059765;28;20460;-71
2021/10/02 09:51:45;;;;;;;2.17;1.97;;;;;;;16.85;71.64;99917.50;5060074;28;20503;-71
2021/10/02 09:54:37;;;;;;;2.27;2.07;;;;;;;17.04;70.16;99910.66;5059470;28;21020;-71
2021/10/02 09:57:09;;;;;;;2.20;1.90;;;;;;;17.56;69.10;99914.91;5052125;28;20503;-71
2021/10/02 09:59:36;;;;;;;2.17;1.90;;;;;;;17.56;68.40;99916.78;5061431;28;20547;-74
2021/10/02 10:02:12;;;;;;;2.10;1.90;;;;;;;17.43;68.48;99907.53;5059433;28;20485;-71
2021/10/02 10:04:39;;;;;;;2.37;1.80;;;;;;;16.91;70.11;99912.19;5060326;28;20525;-71
2021/10/02 10:07:09;;;;;;;3.63;1.93;;;;;;;16.78;70.67;99905.78;5060330;28;20536;-72
2021/10/02 10:09:41;;;;;;;3.90;2.00;;;;;;;16.96;70.20;99906.22;5058911;28;20535;-71
2021/10/02 10:12:08;;;;;;;1.73;1.63;;;;;;;17.00;70.68;99912.09;5060496;28;20485;-71
2021/10/02 10:14:36;;;;;;;2.50;2.30;;;;;;;17.10;69.98;99902.63;5060109;28;20739;-71
2021/10/02 10:17:08;;;;;;;2.33;1.97;;;;;;;16.91;71.94;99895.16;5059176;28;20525;-72
2021/10/02 10:19:35;;;;;;;2.90;2.37;;;;;;;16.85;70.66;99895.91;5060498;28;20447;-71
2021/10/02 10:22:07;;;;;;;4.23;2.20;;;;;;;16.89;70.82;99897.19;5059575;28;20527;-72
2021/10/02 10:24:34;;;;;;;3.27;2.30;;;;;;;17.09;69.81;99881.22;5059194;28;20556;-72
2021/10/02 10:27:03;;;;;;;4.30;2.00;;;;;;;16.59;71.82;99883.75;5059581;28;20504;-71
2021/10/02 10:29:39;;;;;;;2.50;2.30;;;;;;;16.31;72.15;99879.03;5061084;28;20478;-71
2021/10/02 10:32:07;;;;;;;2.40;2.10;;;;;;;16.07;72.61;99884.72;5059718;28;20500;-72
2021/10/02 10:34:38;;;;;;;2.93;2.50;;;;;;;16.38;71.77;99876.41;5060408;28;20483;-72
2021/10/02 10:37:05;;;;;;;2.20;2.00;;;;;;;16.57;71.95;99885.78;5060100;28;20567;-72
2021/10/02 10:39:33;;;;;;;2.27;1.77;;;;;;;16.34;71.28;99881.34;5059235;28;20513;-71
2021/10/02 10:42:02;;;;;;;2.03;1.83;;;;;;;16.10;72.15;99879.78;5059601;28;20465;-71
2021/10/02 10:44:28;;;;;;;2.50;1.90;;;;;;;16.33;71.58;99866.19;5060479;28;20464;-71
2021/10/02 10:46:55;;;;;;;2.00;1.63;;;;;;;16.56;71.32;99860.69;5058286;28;20499;-71
2021/10/02 10:49:24;;;;;;;2.10;1.90;;;;;;;17.54;67.94;99845.88;5060201;28;20523;-72
2021/10/02 10:51:51;;;;;;;1.60;1.43;;;;;;;17.26;68.65;99852.09;5060149;28;20548;-72
2021/10/02 10:54:19;;;;;;;3.07;1.50;;;;;;;16.63;68.68;99851.81;5058615;28;20511;-71
2021/10/02 10:56:49;;;;;;;1.60;1.40;;;;;;;16.38;69.32;99852.97;5039519;28;20482;-71
2021/10/02 10:59:18;;;;;;;1.43;1.30;;;;;;;16.63;70.01;99857.19;5040516;28;20469;-71
2021/10/02 11:01:46;;;;;;;1.90;1.50;;;;;;;16.89;67.70;99852.16;5038638;28;20478;-72
2021/10/02 11:04:34;;;;;;;2.40;1.60;;;;;;;16.84;67.99;99848.31;5040235;28;20528;-71
2021/10/02 11:07:01;;;;;;;1.47;1.20;;;;;;;17.03;67.41;99847.72;5045581;28;20563;-72
2021/10/02 11:09:38;;;;;;;2.70;1.40;;;;;;;17.07;67.47;99848.16;5058332;28;20510;-72
2021/10/02 11:12:07;;;;;;;2.60;1.30;;;;;;;16.84;67.63;99846.50;5040048;28;20508;-72
2021/10/02 11:15:05;;;;;;;2.17;1.67;;;;;;;16.82;68.06;99845.81;5059510;28;20752;-72
2021/10/02 11:17:44;;;;;;;2.37;1.50;;;;;;;16.89;67.10;99835.94;4987936;28;20484;-72
2021/10/02 11:20:30;;;;;;;3.73;2.00;;;;;;;16.96;67.59;99837.88;4995297;28;20451;-72
2021/10/02 11:23:34;;;;;;;2.00;1.60;;;;;;;16.89;67.23;99835.09;4993717;28;20458;-72
2021/10/02 11:26:21;;;;;;;1.50;1.40;;;;;;;17.49;66.19;99824.84;4994565;28;21114;-72
2021/10/02 11:28:51;;;;;;;9.53;2.33;;;;;;;17.92;65.39;99826.63;4995998;28;20436;-73
2021/10/02 11:31:21;;;;;;;3.10;1.80;;;;;;;17.38;65.70;99819.97;4994071;28;20489;-72
2021/10/02 11:33:49;;;;;;;2.93;1.70;;;;;;;17.14;65.88;99822.06;4996042;28;20491;-72
2021/10/02 11:36:41;;;;;;;1.93;1.70;;;;;;;17.36;65.99;99817.47;4994741;28;20543;-72
2021/10/02 11:39:13;;;;;;;2.97;1.60;;;;;;;16.62;67.67;99824.00;4994130;28;20539;-72
2021/10/02 11:41:41;;;;;;;2.50;1.73;;;;;;;16.59;67.86;99821.66;4992605;28;20503;-72
2021/10/02 11:44:08;;;;;;;1.80;1.70;;;;;;;16.72;68.45;99821.00;4987803;28;20460;-72
2021/10/02 11:46:36;;;;;;;2.80;1.60;;;;;;;16.98;68.31;99825.84;4993557;28;20534;-72
2021/10/02 11:49:17;;;;;;;3.00;1.70;;;;;;;16.86;67.68;99814.72;4995327;28;20518;-72
2021/10/02 11:52:11;;;;;;;3.33;1.83;;;;;;;16.93;66.75;99809.41;5025501;28;20475;-72
2021/10/02 11:54:38;;;;;;;3.07;1.53;;;;;;;17.23;65.83;99809.25;5055230;28;20556;-72
2021/10/02 11:57:10;;;;;;;2.77;1.93;;;;;;;17.24;66.12;99810.94;5056610;28;20476;-72
2021/10/02 11:59:41;;;;;;;2.00;1.80;;;;;;;17.54;65.98;99808.03;5049327;28;21726;-72
2021/10/02 12:02:09;;;;;;;2.83;1.63;;;;;;;17.53;63.69;99806.34;5056209;28;20516;-72
2021/10/02 12:04:36;;;;;;;2.60;1.90;;;;;;;17.86;63.53;99799.34;5056906;28;20505;-72
2021/10/02 12:07:03;;;;;;;3.57;2.80;;;;;;;17.92;63.52;99789.59;5055340;28;20500;-72
2021/10/02 12:09:30;;;;;;;1.60;1.40;;;;;;;17.76;64.20;99784.44;5056259;28;21040;-72
2021/10/02 12:11:57;;;;;;;1.77;1.50;;;;;;;17.45;64.04;99791.13;5055998;28;20504;-72
2021/10/02 12:14:27;;;;;;;2.70;2.10;;;;;;;17.70;63.88;99780.69;5056401;28;20437;-72
2021/10/02 12:16:54;;;;;;;3.93;1.60;;;;;;;18.09;63.87;99771.16;5055556;28;20579;-72
2021/10/02 12:19:24;;;;;;;2.13;1.90;;;;;;;18.41;61.27;99766.88;5039292;28;20484;-72
2021/10/02 12:21:55;;;;;;;3.07;2.30;;;;;;;18.87;61.49;99762.66;5048108;28;20477;-72
2021/10/02 12:24:23;;;;;;;2.10;1.70;;;;;;;18.24;61.48;99765.59;5057068;28;20457;-72
2021/10/02 12:26:54;;;;;;;2.67;1.87;;;;;;;18.10;63.30;99753.03;5056568;28;20948;-71